Latest Weather Observations for Paraburdoo

IDW60801

Issued at 11:05 pm WST Tuesday 21 October 2014 (issued every 30 minutes, with the page automatically refreshed every 10 minutes)

About weather observations | Map of weather stations | Latest weather observations for WA | Other Formats
Station Details ID: 007185 Name: PARABURDOO AERO Lat: -23.17 Lon: 117.75 Height: 423.7 m
Data from the previous 72 hours. | See also: Recent months at Paraburdoo
Date/Time
WST
Temp
°C
App
Temp
°C
Dew
Point
Rel
Hum
%
Delta-T
°C
Wind Press
QNH
hPa
Press
MSL
hPa
Rain
since 9 am
mm
Dir
 
Spd
km/h
Gust
km/h
Spd
kts
Gust
kts
21/11:00pm 24.0 19.8 -8.2 11 12.8 SE 7 13 4 7 1017.6 1015.0 0.0
21/10:30pm 24.9 20.2 -8.8 10 13.4 NNW 9 11 5 6 1017.6 1015.0 0.0
21/10:00pm 26.1 21.8 -9.2 9 14.1 WNW 7 9 4 5 1017.8 1015.2 0.0
21/09:30pm 28.0 23.3 -9.3 8 15.2 WNW 9 11 5 6 1017.8 1015.2 0.0
21/09:00pm 28.6 23.5 -8.8 8 15.4 WNW 11 15 6 8 1017.5 1014.9 0.0
21/08:30pm 30.1 25.1 -7.7 8 16.1 W 11 15 6 8 1017.2 1014.6 0.0
21/08:00pm 31.0 24.8 -8.8 7 16.8 W 17 22 9 12 1016.9 1014.2 0.0
21/07:30pm 32.1 25.4 -8.0 7 17.3 W 20 28 11 15 1016.6 1013.9 0.0
21/07:00pm 32.9 25.0 -9.4 6 18.0 W 26 35 14 19 1016.3 1013.6 0.0
21/06:30pm 33.5 26.0 -9.0 6 18.3 WNW 24 32 13 17 1015.7 1013.1 0.0
21/06:00pm 34.6 27.5 -8.2 6 18.8 W 22 32 12 17 1015.3 1012.7 0.0
21/05:30pm 35.4 28.9 -7.6 6 19.2 NW 19 28 10 15 1014.8 1012.1 0.0
21/05:00pm 36.2 30.3 -9.4 5 19.9 WNW 15 20 8 11 1014.5 1011.8 0.0
21/04:30pm 36.8 29.4 -11.8 4 20.5 W 22 39 12 21 1014.4 1011.7 0.0
21/04:00pm 37.0 28.9 -11.6 4 20.6 WNW 26 39 14 21 1014.3 1011.6 0.0
21/03:37pm 37.1 28.6 -11.6 4 20.7 NW 28 54 15 29 1014.6 1011.9 0.0
21/03:30pm 37.2 30.2 -11.5 4 20.8 NW 20 46 11 25 1014.6 1011.9 0.0
21/03:00pm 36.9 28.8 -11.7 4 20.6 W 26 39 14 21 1014.7 1012.0 0.0
21/02:30pm 37.4 29.7 -11.4 4 20.9 NW 24 41 13 22 1014.9 1012.2 0.0
21/02:00pm 36.8 29.1 -11.8 4 20.5 W 24 33 13 18 1015.2 1012.6 0.0
21/01:30pm 37.1 28.6 -11.6 4 20.7 WNW 28 33 15 18 1015.7 1013.1 0.0
21/01:14pm 36.6 28.3 -9.1 5 20.1 NW 28 46 15 25 1015.9 1013.3 0.0
21/01:00pm 36.4 29.0 -12.0 4 20.3 WNW 22 35 12 19 1016.3 1013.6 0.0
21/12:30pm 36.9 29.2 -11.7 4 20.6 WNW 24 37 13 20 1016.7 1014.0 0.0
21/12:00pm 36.9 28.4 -11.7 4 20.6 NNW 28 37 15 20 1017.0 1014.3 0.0
21/11:30am 35.1 27.9 -10.1 5 19.3 WNW 22 32 12 17 1017.5 1014.9 0.0
21/11:00am 35.5 28.3 -9.9 5 19.5 WNW 22 30 12 16 1017.8 1015.2 0.0
21/10:30am 34.8 26.4 -10.3 5 19.2 NW 28 41 15 22 1018.1 1015.5 0.0
21/10:00am 34.0 25.2 -10.9 5 18.8 NW 30 43 16 23 1018.4 1015.8 0.0
21/09:30am 33.9 26.6 -11.0 5 18.7 N 22 33 12 18 1018.4 1015.8 0.0
21/09:00am 31.5 25.8 -3.8 10 16.3 NE 17 24 9 13 1018.6 1015.9 0.0
21/08:30am 30.4 24.2 -3.3 11 15.6 NE 20 24 11 13 1018.6 1015.9 0.0
21/08:00am 28.9 23.8 -2.3 13 14.5 ENE 15 22 8 12 1018.7 1016.0 0.0
21/07:30am 25.3 21.3 -2.3 16 12.5 ENE 9 13 5 7 1018.6 1015.9 0.0
21/07:00am 22.8 18.5 -2.0 19 11.0 ENE 11 15 6 8 1018.6 1015.9 0.0
21/06:30am 20.5 16.5 -1.9 22 9.8 NE 9 13 5 7 1018.3 1015.7 0.0
21/06:00am 18.1 14.1 -2.2 25 8.6 ENE 9 13 5 7 1017.8 1015.2 0.0
21/05:30am 17.0 12.3 -2.1 27 8.1 ENE 13 17 7 9 1017.6 1015.0 0.0
21/05:00am 16.0 12.3 -2.5 28 7.6 NE 7 13 4 7 1017.4 1014.8 0.0
21/04:30am 16.0 11.1 -3.0 27 7.8 NE 13 13 7 7 1017.3 1014.7 0.0
21/04:00am 16.4 11.6 -2.6 27 7.9 ENE 13 13 7 7 1017.1 1014.4 0.0
21/03:30am 17.1 12.3 -2.5 26 8.2 NNE 13 15 7 8 1016.9 1014.2 0.0
21/03:00am 16.7 12.6 -2.9 26 8.1 ENE 9 11 5 6 1016.8 1014.1 0.0
21/02:30am 16.0 11.8 -4.0 25 8.0 ENE 9 11 5 6 1016.9 1014.2 0.0
21/02:00am 16.3 12.1 -4.3 24 8.2 ENE 9 9 5 5 1016.8 1014.1 0.0
21/01:30am 18.0 14.8 -3.4 23 8.9 E 4 7 2 4 1016.9 1014.2 0.0
21/01:00am 19.3 14.5 -2.9 22 9.4 NE 13 15 7 8 1016.9 1014.2 0.0
21/12:30am 19.3 14.8 -3.5 21 9.5 ENE 11 13 6 7 1017.0 1014.3 0.0
21/12:00am 19.5 15.4 -3.4 21 9.6 E 9 11 5 6 1017.2 1014.6 0.0
 
Date/Time
WST
Temp
°C
App
Temp
°C
Dew
Point
Rel
Hum
%
Delta-T
°C
Wind Press
QNH
hPa
Press
MSL
hPa
Rain
since 9 am
mm
Dir
 
Spd
km/h
Gust
km/h
Spd
kts
Gust
kts
20/11:30pm 20.1 16.0 -2.9 21 9.8 E 9 11 5 6 1017.4 1014.8 0.0
20/11:00pm 20.8 18.4 -3.0 20 10.2 CALM 0 7 0 4 1017.4 1014.8 0.0
20/10:30pm 21.1 18.7 -3.4 19 10.4 CALM 0 0 0 0 1017.5 1014.9 0.0
20/10:00pm 23.4 18.9 -3.0 17 11.6 NW 11 15 6 8 1017.6 1015.0 0.0
20/09:30pm 24.4 20.8 -2.2 17 11.9 NNW 7 9 4 5 1017.6 1015.0 0.0
20/09:00pm 24.4 20.3 -3.0 16 12.1 W 9 13 5 7 1017.4 1014.8 0.0
20/08:30pm 26.9 23.2 -2.8 14 13.5 SSW 7 9 4 5 1017.1 1014.4 0.0
20/08:00pm 27.9 23.4 -3.0 13 14.0 SSW 11 13 6 7 1016.7 1014.0 0.0
20/07:30pm 28.7 24.3 -2.4 13 14.4 SW 11 13 6 7 1016.4 1013.7 0.0
20/07:00pm 29.5 25.3 -4.0 11 15.2 WSW 9 13 5 7 1015.8 1013.2 0.0
20/06:30pm 30.5 24.7 -4.5 10 15.8 SW 17 24 9 13 1015.3 1012.7 0.0
20/06:00pm 31.7 25.3 -5.0 9 16.6 WSW 20 24 11 13 1014.9 1012.2 0.0
20/05:30pm 32.5 26.7 -4.4 9 17.0 W 17 22 9 12 1014.6 1011.9 0.0
20/05:00pm 32.7 26.4 -4.3 9 17.1 SW 20 26 11 14 1014.4 1011.7 0.0
20/04:30pm 33.5 27.4 -3.7 9 17.5 W 19 28 10 15 1014.3 1011.6 0.0
20/04:00pm 33.2 27.9 -3.9 9 17.3 W 15 28 8 15 1014.2 1011.5 0.0
20/03:30pm 33.9 27.9 -6.7 7 18.2 W 17 24 9 13 1014.2 1011.5 0.0
20/03:00pm 34.0 26.7 -6.6 7 18.2 W 24 39 13 21 1014.4 1011.7 0.0
20/02:30pm 34.2 26.3 -8.5 6 18.6 WNW 26 39 14 21 1014.5 1011.8 0.0
20/02:00pm 34.0 27.4 -6.6 7 18.2 W 20 37 11 20 1014.7 1012.0 0.0
20/01:30pm 31.9 26.6 -3.5 10 16.5 W 15 28 8 15 1015.2 1012.6 0.0
20/01:00pm 32.4 26.4 -3.1 10 16.7 N 19 20 10 11 1015.5 1012.9 0.0
20/12:30pm 30.7 25.4 -0.8 13 15.2 W 17 26 9 14 1016.3 1013.6 0.0
20/12:00pm 29.4 25.6 -0.9 14 14.5 ESE 9 15 5 8 1016.7 1014.0 0.0
20/11:30am 28.8 25.0 -0.4 15 14.0 N 9 19 5 10 1017.1 1014.4 0.0
20/11:00am 28.1 23.9 -0.9 15 13.7 ENE 11 20 6 11 1017.5 1014.9 0.0
20/10:30am 27.4 24.5 2.5 20 12.5 N 7 13 4 7 1017.9 1015.3 0.0
20/10:00am 26.0 23.3 3.9 24 11.2 N 7 13 4 7 1018.3 1015.7 0.0
20/09:30am 26.0 23.8 6.1 28 10.5 SE 7 13 4 7 1018.7 1016.0 0.0
20/09:00am 24.6 22.4 7.7 34 9.1 S 9 13 5 7 1018.9 1016.2 0.0
20/08:30am 23.0 22.0 8.7 40 7.8 E 4 11 2 6 1019.0 1016.3 0.0
20/08:00am 21.8 19.9 9.0 44 6.9 S 9 15 5 8 1018.9 1016.2 0.0
20/07:30am 20.9 19.7 7.9 43 6.9 SSW 4 9 2 5 1018.8 1016.1 0.0
20/07:00am 19.6 17.6 6.3 42 6.8 WNW 6 7 3 4 1018.7 1016.0 0.0
20/06:30am 18.0 16.7 3.9 39 6.8 CALM 0 0 0 0 1018.2 1015.6 0.0
20/06:00am 14.7 12.1 0.9 39 6.1 ENE 4 7 2 4 1017.6 1015.0 0.0
20/05:30am 12.9 9.7 -0.7 39 5.7 ENE 6 7 3 4 1017.2 1014.6 0.0
20/05:00am 14.0 12.0 -0.4 37 6.1 CALM 0 0 0 0 1016.8 1014.1 0.0
20/04:30am 13.8 11.8 -0.3 38 6.0 CALM 0 0 0 0 1016.6 1013.9 0.0
20/04:00am 16.1 13.1 2.2 39 6.4 NW 7 9 4 5 1016.3 1013.6 0.0
20/03:30am 15.4 11.8 0.4 36 6.6 NNW 9 9 5 5 1016.2 1013.5 0.0
20/03:00am 15.5 12.3 0.5 36 6.6 NNE 7 9 4 5 1015.8 1013.2 0.0
20/02:30am 17.2 13.7 1.2 34 7.2 WNW 9 9 5 5 1015.8 1013.2 0.0
20/02:00am 16.2 12.6 0.7 35 6.9 NE 9 11 5 6 1015.9 1013.3 0.0
20/01:30am 16.7 14.9 1.2 35 7.0 CALM 0 0 0 0 1015.9 1013.3 0.0
20/01:00am 17.1 14.1 1.1 34 7.2 ENE 6 7 3 4 1015.9 1013.3 0.0
20/12:30am 17.8 14.7 1.3 33 7.5 ENE 7 9 4 5 1016.1 1013.4 0.0
20/12:00am 18.6 16.1 1.6 32 7.8 W 4 7 2 4 1016.1 1013.4 0.0
 
Date/Time
WST
Temp
°C
App
Temp
°C
Dew
Point
Rel
Hum
%
Delta-T
°C
Wind Press
QNH
hPa
Press
MSL
hPa
Rain
since 9 am
mm
Dir
 
Spd
km/h
Gust
km/h
Spd
kts
Gust
kts
19/11:30pm 21.1 18.4 2.9 30 8.8 N 6 7 3 4 1016.2 1013.5 0.0
19/11:00pm 19.5 17.7 1.5 30 8.3 CALM 0 0 0 0 1016.2 1013.5 0.0
19/10:30pm 21.9 19.1 3.1 29 9.2 W 7 11 4 6 1016.2 1013.5 0.0
19/10:00pm 22.9 19.8 3.4 28 9.6 W 9 11 5 6 1016.1 1013.4 0.0
19/09:30pm 23.8 19.9 3.2 26 10.2 W 13 15 7 8 1015.9 1013.3 0.0
19/09:00pm 24.6 20.7 3.3 25 10.6 W 13 17 7 9 1015.7 1013.1 0.0
19/08:30pm 25.0 20.9 2.4 23 11.1 W 13 15 7 8 1015.4 1012.8 0.0
19/08:00pm 25.7 20.9 2.4 22 11.5 W 17 19 9 10 1015.2 1012.6 0.0
19/07:30pm 26.1 21.1 1.4 20 12.0 W 17 20 9 11 1014.8 1012.1 0.0
19/07:00pm 26.7 21.1 1.2 19 12.4 W 20 30 11 16 1014.4 1011.7 0.0
19/06:30pm 27.6 20.9 1.2 18 12.9 W 26 32 14 17 1013.9 1011.2 0.0
19/06:00pm 28.3 21.8 0.1 16 13.6 W 24 32 13 17 1013.4 1010.8 0.0
19/05:30pm 29.4 22.0 -0.9 14 14.5 W 28 39 15 21 1013.0 1010.4 0.0
19/05:00pm 30.0 21.6 -1.4 13 14.9 W 33 44 18 24 1012.8 1010.1 0.0
19/04:34pm 30.4 22.7 -3.3 11 15.6 W 28 46 15 25 1012.5 1009.8 0.0
19/04:30pm 30.6 22.1 -3.2 11 15.7 WNW 32 48 17 26 1012.5 1009.8 0.0
19/04:21pm 31.1 22.9 -4.1 10 16.1 WNW 30 48 16 26 1012.4 1009.7 0.0
19/04:00pm 31.2 23.0 -4.0 10 16.2 WNW 30 39 16 21 1012.4 1009.7 0.0
19/03:31pm 31.9 23.4 -3.5 10 16.5 WNW 32 57 17 31 1012.4 1009.7 0.0
19/03:30pm 31.2 22.6 -4.0 10 16.2 WNW 32 46 17 25 1012.1 1009.4 0.0
19/03:00pm 31.6 23.6 -2.4 11 16.1 WNW 30 48 16 26 1012.5 1009.8 0.0
19/02:48pm 31.4 23.5 -1.4 12 15.8 WNW 30 54 16 29 1012.4 1009.7 0.0
19/02:30pm 31.0 22.4 -2.9 11 15.8 WNW 33 48 18 26 1012.7 1010.0 0.0
19/02:03pm 30.7 23.6 1.1 15 14.8 WNW 28 48 15 26 1013.1 1010.5 0.0
19/02:00pm 30.5 24.1 1.0 15 14.7 WNW 24 41 13 22 1013.1 1010.5 0.0
19/01:30pm 29.3 24.9 4.7 21 12.9 WNW 17 28 9 15 1013.7 1011.0 0.0
19/01:00pm 29.6 23.4 6.3 23 12.6 NW 28 32 15 17 1014.1 1011.4 0.0
19/12:30pm 28.1 23.6 6.8 26 11.5 WNW 20 26 11 14 1014.7 1012.0 0.0
19/12:00pm 27.0 22.4 6.4 27 11.0 W 20 32 11 17 1015.2 1012.6 0.0
19/11:30am 27.4 22.3 7.8 29 10.7 WNW 24 35 13 19 1015.5 1012.9 0.0
19/11:00am 26.1 22.2 7.2 30 10.2 WNW 17 24 9 13 1015.9 1013.3 0.0
19/10:30am 25.8 22.8 7.9 32 9.7 W 13 22 7 12 1016.3 1013.6 0.0
19/10:00am 24.9 21.3 8.4 35 9.0 W 17 26 9 14 1016.7 1014.0 0.0
19/09:30am 24.5 21.6 9.6 39 8.3 WSW 15 24 8 13 1016.7 1014.0 0.0
19/09:00am 23.3 21.3 10.0 43 7.4 W 11 20 6 11 1016.7 1014.0 0.2
19/08:30am 22.0 19.8 10.8 49 6.3 W 13 19 7 10 1016.9 1014.2 0.2
19/08:00am 21.2 18.8 11.5 54 5.5 SW 15 22 8 12 1016.8 1014.1 0.2
19/07:30am 21.4 18.6 11.4 53 5.7 WSW 17 20 9 11 1016.6 1013.9 0.2
19/07:00am 21.1 17.9 11.2 53 5.6 W 19 22 10 12 1016.3 1013.6 0.2
19/06:30am 20.8 18.3 10.9 53 5.5 WSW 15 20 8 11 1015.8 1013.2 0.2
19/06:00am 20.5 18.0 10.9 54 5.4 WSW 15 19 8 10 1015.4 1012.8 0.2
19/05:30am 20.6 18.8 10.7 53 5.5 WSW 11 15 6 8 1014.9 1012.2 0.2
19/05:00am 20.9 17.9 10.7 52 5.7 WSW 17 20 9 11 1014.5 1011.8 0.2
19/04:30am 21.2 19.1 11.0 52 5.7 WSW 13 17 7 9 1014.3 1011.6 0.2
19/04:00am 21.5 17.9 10.6 50 6.1 WSW 20 26 11 14 1014.1 1011.4 0.2
19/03:30am 22.0 18.7 10.8 49 6.3 WSW 19 24 10 13 1013.6 1010.9 0.2
19/03:00am 22.5 18.4 10.0 45 6.9 W 22 28 12 15 1013.6 1010.9 0.2
19/02:30am 22.9 19.5 9.3 42 7.5 WNW 17 24 9 13 1013.4 1010.8 0.2
19/02:00am 23.1 19.3 9.1 41 7.7 WNW 19 24 10 13 1013.4 1010.8 0.2
19/01:30am 23.4 19.6 9.0 40 7.9 WNW 19 26 10 14 1013.6 1010.9 0.2
19/01:00am 23.8 18.6 9.0 39 8.1 WNW 26 33 14 18 1013.7 1011.0 0.2
19/12:30am 24.1 20.4 10.0 41 7.9 WNW 20 28 11 15 1013.7 1011.0 0.2
19/12:00am 24.3 21.1 9.8 40 8.1 WNW 17 20 9 11 1013.8 1011.1 0.2
 
Date/Time
WST
Temp
°C
App
Temp
°C
Dew
Point
Rel
Hum
%
Delta-T
°C
Wind Press
QNH
hPa
Press
MSL
hPa
Rain
since 9 am
mm
Dir
 
Spd
km/h
Gust
km/h
Spd
kts
Gust
kts
18/11:30pm 24.9 20.7 9.6 38 8.5 W 22 30 12 16 1013.9 1011.2 0.2

Other Formats:

Comma delimited format used in spreadsheet applications
http://www.bom.gov.au/fwo/IDW60801/IDW60801.94316.axf

JavaScript Object Notation format (JSON) in row-major order
http://www.bom.gov.au/fwo/IDW60801/IDW60801.94316.json